createdAt,value
2017-09-26T00:02:24.730Z,27.17
2017-09-26T00:04:51.338Z,26.70
2017-09-26T00:07:18.053Z,23.17
2017-09-26T00:09:44.677Z,37.67
2017-09-26T00:12:11.290Z,24.12
2017-09-26T00:14:37.900Z,21.73
2017-09-26T00:17:04.523Z,22.98
2017-09-26T00:19:31.130Z,23.05
2017-09-26T00:21:57.788Z,23.60
2017-09-26T00:24:24.532Z,21.55
2017-09-26T00:26:51.151Z,22.73
2017-09-26T00:29:17.768Z,28.50
2017-09-26T00:31:44.447Z,27.45
2017-09-26T00:34:11.063Z,21.20
2017-09-26T00:36:37.679Z,21.25
2017-09-26T00:39:04.314Z,22.92
2017-09-26T00:41:30.931Z,26.00
2017-09-26T00:43:57.546Z,23.85
2017-09-26T00:46:24.268Z,26.60
2017-09-26T00:48:50.882Z,23.45
2017-09-26T00:51:17.517Z,26.05
2017-09-26T00:53:44.130Z,28.17
2017-09-26T00:56:10.825Z,28.65
2017-09-26T00:58:37.454Z,23.95
2017-09-26T01:01:06.622Z,25.67
2017-09-26T01:03:36.145Z,33.42
2017-09-26T01:06:12.680Z,25.02
2017-09-26T01:08:39.295Z,28.95
2017-09-26T01:11:05.909Z,32.00
2017-09-26T01:13:32.529Z,28.70
2017-09-26T01:15:59.142Z,27.98
2017-09-26T01:18:25.746Z,29.25
2017-09-26T01:20:52.369Z,23.60
2017-09-26T01:23:18.978Z,35.92
2017-09-26T01:25:45.592Z,25.15
2017-09-26T01:28:12.222Z,28.00
2017-09-26T01:30:38.830Z,23.38
2017-09-26T01:33:05.442Z,23.52
2017-09-26T01:35:32.067Z,24.37
2017-09-26T01:37:58.747Z,23.55
2017-09-26T01:40:25.349Z,23.55
2017-09-26T01:42:51.982Z,27.02
2017-09-26T01:45:18.594Z,60.03
2017-09-26T01:47:45.298Z,34.80
2017-09-26T01:50:11.926Z,22.50
2017-09-26T01:52:38.535Z,25.00
2017-09-26T01:55:05.151Z,24.75
2017-09-26T01:57:33.333Z,49.25
2017-09-26T01:59:59.950Z,25.48
2017-09-26T02:02:26.570Z,41.22
2017-09-26T02:04:53.194Z,21.73
2017-09-26T02:07:19.805Z,25.55
2017-09-26T02:09:46.410Z,31.05
2017-09-26T02:12:13.042Z,24.37
2017-09-26T02:14:39.762Z,25.35
2017-09-26T02:17:06.403Z,26.20
2017-09-26T02:19:33.027Z,19.40
2017-09-26T02:21:59.638Z,25.00
2017-09-26T02:24:26.278Z,22.95
2017-09-26T02:26:52.882Z,19.40
2017-09-26T02:29:19.598Z,21.73
2017-09-26T02:31:46.337Z,21.42
2017-09-26T02:34:12.947Z,19.70
2017-09-26T02:36:39.590Z,19.30
2017-09-26T02:39:06.185Z,21.40
2017-09-26T02:41:32.801Z,19.98
2017-09-26T02:43:59.410Z,21.17
2017-09-26T02:46:26.035Z,19.45
2017-09-26T02:48:52.655Z,18.70
2017-09-26T02:51:19.282Z,25.20
2017-09-26T02:53:45.989Z,22.17
2017-09-26T02:56:12.597Z,28.50
2017-09-26T02:58:39.230Z,23.00
2017-09-26T03:01:05.838Z,20.15
2017-09-26T03:03:32.540Z,25.20
2017-09-26T03:05:59.171Z,32.65
2017-09-26T03:08:25.780Z,30.27
2017-09-26T03:10:52.392Z,27.92
2017-09-26T03:13:19.009Z,31.62
2017-09-26T03:15:45.629Z,23.50
2017-09-26T03:18:12.278Z,27.87
2017-09-26T03:20:38.881Z,19.87
2017-09-26T03:23:05.487Z,37.75
2017-09-26T03:25:32.110Z,25.67
2017-09-26T03:27:58.722Z,32.55
2017-09-26T03:30:25.350Z,21.95
2017-09-26T03:32:51.957Z,23.80
2017-09-26T03:35:18.577Z,27.98
2017-09-26T03:37:45.197Z,20.88
2017-09-26T03:40:11.810Z,21.92
2017-09-26T03:42:38.414Z,22.08
2017-09-26T03:45:05.038Z,20.00
2017-09-26T03:47:31.646Z,19.77
2017-09-26T03:49:58.262Z,20.23
2017-09-26T03:52:24.918Z,18.60
2017-09-26T03:54:51.522Z,21.87
2017-09-26T03:57:18.135Z,23.10
2017-09-26T03:59:44.762Z,18.60
2017-09-26T04:02:11.374Z,20.23
2017-09-26T04:04:37.981Z,22.08
2017-09-26T04:07:04.607Z,20.73
2017-09-26T04:09:31.218Z,26.67
2017-09-26T04:11:57.827Z,26.37
2017-09-26T04:14:24.547Z,23.23
2017-09-26T04:16:51.153Z,27.52
2017-09-26T04:19:17.788Z,27.77
2017-09-26T04:21:44.417Z,39.10
2017-09-26T04:24:11.122Z,32.47
2017-09-26T04:26:37.730Z,29.65
2017-09-26T04:29:04.367Z,26.08
2017-09-26T04:31:31.042Z,23.45
2017-09-26T04:33:57.650Z,22.62
2017-09-26T04:36:24.314Z,21.20
2017-09-26T04:38:50.926Z,22.13
2017-09-26T04:41:17.564Z,25.90
2017-09-26T04:43:44.175Z,24.55
2017-09-26T04:46:10.816Z,18.55
2017-09-26T04:48:37.438Z,21.25
2017-09-26T04:51:04.053Z,24.55
2017-09-26T04:53:30.663Z,25.58
2017-09-26T04:55:57.290Z,21.70
2017-09-26T04:58:23.906Z,18.70
2017-09-26T05:00:50.510Z,22.67
2017-09-26T05:03:17.133Z,24.98
2017-09-26T05:05:43.743Z,28.50
2017-09-26T05:08:10.361Z,23.48
2017-09-26T05:10:37.058Z,41.65
2017-09-26T05:13:03.669Z,22.95
2017-09-26T05:15:30.279Z,47.03
2017-09-26T05:17:56.906Z,20.45
2017-09-26T05:20:23.510Z,28.73
2017-09-26T05:22:50.123Z,25.62
2017-09-26T05:25:16.749Z,56.13
2017-09-26T05:27:43.366Z,64.85
2017-09-26T05:30:10.075Z,62.65
2017-09-26T05:32:36.698Z,54.40
2017-09-26T05:35:03.315Z,81.20
2017-09-26T05:37:29.926Z,58.20
2017-09-26T05:39:56.630Z,41.03
2017-09-26T05:42:23.236Z,34.28
2017-09-26T05:44:49.854Z,47.88
2017-09-26T05:47:16.487Z,46.47
2017-09-26T05:49:43.098Z,28.77
2017-09-26T05:52:09.715Z,111.97
2017-09-26T05:54:36.342Z,56.60
2017-09-26T05:57:03.000Z,57.20
2017-09-26T05:59:29.622Z,71.93
2017-09-26T06:01:56.238Z,57.35
2017-09-26T06:04:22.852Z,50.05
2017-09-26T06:06:49.597Z,75.75
2017-09-26T06:09:16.206Z,64.78
2017-09-26T06:11:42.820Z,38.70
2017-09-26T06:14:09.454Z,38.47
2017-09-26T06:16:36.105Z,59.25
2017-09-26T06:19:02.744Z,71.68
2017-09-26T06:21:29.490Z,74.43
2017-09-26T06:23:56.097Z,38.60
2017-09-26T06:26:22.714Z,39.83
2017-09-26T06:28:49.342Z,22.77
2017-09-26T06:31:15.986Z,31.33
2017-09-26T06:33:42.615Z,32.80
2017-09-26T06:36:09.234Z,22.52
2017-09-26T06:38:35.855Z,25.58
2017-09-26T06:41:02.501Z,27.20
2017-09-26T06:43:29.184Z,27.05
2017-09-26T06:45:55.883Z,17.58
2017-09-26T06:48:22.516Z,27.08
2017-09-26T06:50:49.122Z,19.35
2017-09-26T06:53:15.842Z,24.10
2017-09-26T06:55:42.470Z,16.37
2017-09-26T06:58:09.086Z,24.75
2017-09-26T07:00:35.698Z,29.60
2017-09-26T07:03:02.330Z,46.08
2017-09-26T07:05:28.938Z,22.92
2017-09-26T07:07:55.634Z,31.52
2017-09-26T07:10:22.259Z,23.42
2017-09-26T07:12:48.874Z,16.15
2017-09-26T07:15:15.483Z,17.42
2017-09-26T07:17:42.230Z,16.77
2017-09-26T07:20:08.842Z,21.12
2017-09-26T07:22:35.457Z,15.65
2017-09-26T07:25:02.109Z,15.27
2017-09-26T07:27:28.713Z,18.73
2017-09-26T07:29:55.341Z,17.90
2017-09-26T07:32:21.958Z,29.77
2017-09-26T07:34:48.562Z,24.45
2017-09-26T07:37:15.198Z,18.85
2017-09-26T07:39:41.838Z,27.95
2017-09-26T07:42:08.447Z,29.02
2017-09-26T07:44:35.078Z,31.23
2017-09-26T07:47:01.693Z,31.45
2017-09-26T07:49:28.297Z,28.45
2017-09-26T07:51:54.930Z,30.88
2017-09-26T07:54:21.538Z,26.48
2017-09-26T07:56:48.155Z,31.05
2017-09-26T07:59:14.787Z,28.35
2017-09-26T08:01:41.404Z,30.17
2017-09-26T08:04:08.570Z,24.65
2017-09-26T08:06:35.839Z,26.58
2017-09-26T08:09:03.118Z,24.67
2017-09-26T08:11:29.751Z,25.98
2017-09-26T08:13:56.422Z,30.37
2017-09-26T08:16:23.067Z,32.03
2017-09-26T08:18:49.700Z,27.30
2017-09-26T08:21:16.310Z,27.17
2017-09-26T08:23:42.921Z,24.52
2017-09-26T08:26:09.554Z,26.80
2017-09-26T08:28:36.254Z,24.87
2017-09-26T08:31:02.865Z,23.77
2017-09-26T08:33:29.579Z,21.35
2017-09-26T08:35:56.190Z,24.60
2017-09-26T08:38:22.797Z,28.38
2017-09-26T08:40:49.454Z,23.80
2017-09-26T08:43:16.063Z,27.52
2017-09-26T08:45:42.669Z,25.62
2017-09-26T08:48:09.303Z,28.42
2017-09-26T08:50:35.910Z,24.27
2017-09-26T08:53:02.526Z,24.23
2017-09-26T08:55:29.150Z,23.65
2017-09-26T08:57:55.826Z,25.23
2017-09-26T09:00:22.438Z,24.87
2017-09-26T09:02:49.070Z,22.90
2017-09-26T09:05:15.679Z,25.17
2017-09-26T09:07:42.295Z,23.00
2017-09-26T09:10:08.959Z,26.00
2017-09-26T09:12:35.566Z,23.05
2017-09-26T09:15:02.178Z,26.60
2017-09-26T09:17:28.802Z,24.58
2017-09-26T09:19:55.474Z,30.70
2017-09-26T09:22:22.106Z,25.58
2017-09-26T09:24:48.795Z,27.70
2017-09-26T09:27:15.406Z,24.75
2017-09-26T09:29:42.033Z,28.38
2017-09-26T09:32:08.647Z,23.92
2017-09-26T09:34:35.278Z,23.45
2017-09-26T09:37:01.889Z,22.30
2017-09-26T09:39:28.583Z,23.62
2017-09-26T09:41:55.210Z,22.58
2017-09-26T09:44:21.826Z,23.60
2017-09-26T09:46:48.433Z,27.30
2017-09-26T09:49:15.070Z,21.27
2017-09-26T09:51:41.691Z,21.45
2017-09-26T09:54:08.317Z,17.48
2017-09-26T09:56:34.954Z,19.67
2017-09-26T09:59:01.556Z,20.35
2017-09-26T10:01:28.174Z,17.70
2017-09-26T10:03:54.810Z,20.42
2017-09-26T10:06:21.423Z,19.15
2017-09-26T10:08:48.092Z,17.60
2017-09-26T10:11:14.818Z,18.90
2017-09-26T10:13:41.434Z,19.25
2017-09-26T10:16:08.047Z,20.70
2017-09-26T10:18:34.668Z,21.17
2017-09-26T10:21:01.288Z,17.73
2017-09-26T10:23:27.981Z,18.48
2017-09-26T10:25:54.612Z,17.12
2017-09-26T10:28:21.226Z,16.75
2017-09-26T10:30:47.849Z,17.95
2017-09-26T10:33:14.482Z,18.20
2017-09-26T10:35:41.096Z,18.35
2017-09-26T10:38:07.729Z,18.27
2017-09-26T10:40:34.345Z,17.85
2017-09-26T10:43:00.958Z,17.98
2017-09-26T10:45:27.577Z,17.73
2017-09-26T10:47:54.197Z,17.77
2017-09-26T10:50:20.802Z,18.35
2017-09-26T10:52:47.426Z,17.23
2017-09-26T10:55:14.034Z,17.17
2017-09-26T10:57:40.650Z,17.45
2017-09-26T11:00:07.279Z,17.23
2017-09-26T11:02:33.885Z,16.05
2017-09-26T11:05:00.503Z,17.12
2017-09-26T11:07:27.134Z,17.35
2017-09-26T11:09:53.761Z,16.77
2017-09-26T11:12:20.365Z,16.27
2017-09-26T11:14:46.993Z,16.40
2017-09-26T11:17:13.610Z,17.95
2017-09-26T11:19:40.219Z,16.12
2017-09-26T11:22:06.915Z,16.40
2017-09-26T11:24:33.526Z,15.80
2017-09-26T11:27:00.150Z,15.77
2017-09-26T11:29:26.763Z,16.67
2017-09-26T11:31:53.374Z,28.62
2017-09-26T11:34:20.003Z,16.90
2017-09-26T11:36:46.637Z,16.15
2017-09-26T11:39:13.250Z,16.67
2017-09-26T11:41:39.899Z,15.63
2017-09-26T11:44:06.511Z,16.65
2017-09-26T11:46:33.121Z,13.50
2017-09-26T11:48:59.842Z,17.55
2017-09-26T11:51:26.454Z,15.60
2017-09-26T11:53:53.074Z,15.27
2017-09-26T11:56:19.715Z,20.17
2017-09-26T11:58:46.326Z,15.05
2017-09-26T12:01:12.943Z,16.12
2017-09-26T12:03:39.568Z,12.93
2017-09-26T12:06:06.186Z,12.90
2017-09-26T12:08:32.818Z,13.75
2017-09-26T12:10:59.438Z,14.80
2017-09-26T12:13:31.883Z,13.48
2017-09-26T12:15:58.602Z,12.50
2017-09-26T12:18:25.242Z,13.02
2017-09-26T12:20:51.990Z,13.20
2017-09-26T12:23:18.610Z,14.27
2017-09-26T12:25:45.266Z,16.27
2017-09-26T12:28:11.887Z,13.43
2017-09-26T12:30:38.498Z,13.70
2017-09-26T12:33:05.178Z,13.13
2017-09-26T12:35:31.806Z,16.67
2017-09-26T12:37:58.415Z,16.07
2017-09-26T12:40:25.021Z,12.77
2017-09-26T12:42:51.738Z,13.90
2017-09-26T12:45:18.373Z,14.07
2017-09-26T12:47:45.058Z,13.60
2017-09-26T12:50:11.686Z,12.70
2017-09-26T12:52:38.298Z,12.83
2017-09-26T12:55:04.914Z,14.33
2017-09-26T12:57:31.549Z,12.13
2017-09-26T12:59:58.164Z,13.70
2017-09-26T13:02:24.771Z,10.50
2017-09-26T13:04:51.403Z,11.30
2017-09-26T13:07:18.011Z,12.07
2017-09-26T13:09:44.621Z,11.73
2017-09-26T13:12:11.303Z,12.83
2017-09-26T13:14:37.906Z,10.87
2017-09-26T13:17:04.587Z,13.37
2017-09-26T13:19:31.217Z,19.37
2017-09-26T13:21:57.826Z,11.10
2017-09-26T13:24:24.438Z,12.03
2017-09-26T13:26:51.062Z,13.07
2017-09-26T13:29:17.679Z,11.73
2017-09-26T13:31:44.323Z,12.75
2017-09-26T13:34:11.226Z,11.48
2017-09-26T13:36:37.848Z,12.82
2017-09-26T13:39:04.453Z,9.98
2017-09-26T13:41:31.078Z,10.02
2017-09-26T13:43:57.685Z,10.85
2017-09-26T13:46:24.313Z,11.20
2017-09-26T13:48:50.930Z,11.07
2017-09-26T13:51:17.641Z,11.05
2017-09-26T13:53:44.449Z,10.50
2017-09-26T13:56:11.055Z,9.73
2017-09-26T13:58:37.667Z,12.93
2017-09-26T14:01:04.282Z,9.50
2017-09-26T14:03:30.887Z,9.33
2017-09-26T14:05:57.485Z,9.80
2017-09-26T14:08:24.111Z,9.80
2017-09-26T14:10:50.709Z,9.27
2017-09-26T14:13:17.314Z,9.47
2017-09-26T14:15:43.942Z,9.70
2017-09-26T14:18:10.551Z,9.53
2017-09-26T14:20:37.153Z,10.03
2017-09-26T14:23:03.785Z,8.10
2017-09-26T14:25:30.385Z,8.20
2017-09-26T14:27:57.018Z,8.03
2017-09-26T14:30:23.666Z,8.20
2017-09-26T14:32:50.265Z,9.47
2017-09-26T14:35:16.882Z,8.00
2017-09-26T14:37:43.481Z,9.27
2017-09-26T14:40:10.081Z,8.70
2017-09-26T14:42:36.710Z,12.27
2017-09-26T14:45:03.314Z,9.10
2017-09-26T14:47:29.920Z,8.73
2017-09-26T14:49:56.543Z,9.07
2017-09-26T14:52:23.151Z,16.83
2017-09-26T14:54:49.854Z,10.20
2017-09-26T14:57:16.468Z,8.70
2017-09-26T14:59:43.122Z,16.17
2017-09-26T15:02:09.749Z,10.47
2017-09-26T15:04:36.363Z,11.17
2017-09-26T15:07:02.980Z,13.20
2017-09-26T15:09:29.621Z,10.35
2017-09-26T15:11:56.318Z,10.38
2017-09-26T15:14:22.938Z,12.80
2017-09-26T15:16:49.558Z,9.37
2017-09-26T15:19:16.163Z,9.60
2017-09-26T15:21:42.790Z,14.37
2017-09-26T15:24:09.418Z,10.38
2017-09-26T15:26:36.034Z,13.23
2017-09-26T15:29:02.678Z,12.27
2017-09-26T15:31:29.285Z,11.23
2017-09-26T15:33:55.902Z,11.68
2017-09-26T15:36:22.521Z,11.80
2017-09-26T15:38:49.245Z,13.57
2017-09-26T15:41:15.987Z,13.52
2017-09-26T15:43:42.614Z,12.50
2017-09-26T15:46:09.309Z,10.63
2017-09-26T15:48:35.930Z,11.32
2017-09-26T15:51:02.547Z,14.18
2017-09-26T15:53:29.175Z,14.85
2017-09-26T15:55:56.125Z,12.43
2017-09-26T15:58:22.787Z,20.27
2017-09-26T16:00:49.442Z,11.15
2017-09-26T16:03:16.061Z,15.23
2017-09-26T16:05:42.690Z,23.35
2017-09-26T16:08:09.426Z,11.75
2017-09-26T16:10:36.042Z,16.02
2017-09-26T16:13:02.684Z,14.20
2017-09-26T16:15:29.286Z,14.40
2017-09-26T16:17:55.981Z,12.48
2017-09-26T16:20:22.623Z,12.90
2017-09-26T16:22:49.234Z,12.15
2017-09-26T16:25:15.850Z,13.13
2017-09-26T16:27:42.469Z,12.63
2017-09-26T16:30:09.087Z,15.93
2017-09-26T16:32:35.698Z,13.65
2017-09-26T16:35:02.335Z,13.98
2017-09-26T16:37:28.951Z,16.37
2017-09-26T16:39:55.572Z,15.25
2017-09-26T16:42:22.199Z,14.10
2017-09-26T16:44:48.804Z,16.12
2017-09-26T16:47:15.445Z,15.00
2017-09-26T16:49:42.090Z,13.62
2017-09-26T16:52:08.706Z,14.20
2017-09-26T16:54:35.322Z,15.25
2017-09-26T16:57:02.012Z,13.15
2017-09-26T16:59:28.642Z,13.75
2017-09-26T17:01:55.255Z,14.75
2017-09-26T17:04:21.922Z,15.75
2017-09-26T17:06:48.562Z,15.45
2017-09-26T17:09:15.170Z,14.27
2017-09-26T17:11:41.802Z,13.98
2017-09-26T17:14:08.417Z,13.25
2017-09-26T17:16:35.025Z,13.85
2017-09-26T17:19:01.663Z,15.27
2017-09-26T17:21:28.273Z,20.08
2017-09-26T17:23:54.891Z,14.82
2017-09-26T17:26:21.506Z,15.00
2017-09-26T17:28:48.116Z,15.70
2017-09-26T17:31:14.742Z,17.87
2017-09-26T17:33:41.381Z,19.48
2017-09-26T17:36:07.991Z,18.48
2017-09-26T17:38:34.623Z,18.95
2017-09-26T17:41:01.233Z,18.27
2017-09-26T17:43:27.846Z,27.77
2017-09-26T17:45:54.577Z,18.73
2017-09-26T17:48:21.226Z,20.52
2017-09-26T17:50:47.830Z,17.48
2017-09-26T17:53:14.462Z,18.17
2017-09-26T17:55:41.071Z,19.67
2017-09-26T17:58:07.678Z,21.30
2017-09-26T18:00:34.323Z,19.55
2017-09-26T18:03:00.934Z,18.37
2017-09-26T18:05:27.552Z,17.37
2017-09-26T18:07:54.199Z,16.83
2017-09-26T18:10:20.817Z,18.98
2017-09-26T18:12:47.434Z,17.20
2017-09-26T18:15:14.053Z,18.83
2017-09-26T18:17:40.666Z,16.77
2017-09-26T18:20:07.317Z,19.70
2017-09-26T18:22:33.959Z,19.65
2017-09-26T18:25:00.598Z,18.35
2017-09-26T18:27:27.205Z,18.05
2017-09-26T18:29:53.818Z,22.13
2017-09-26T18:32:20.442Z,17.08
2017-09-26T18:34:47.058Z,18.20
2017-09-26T18:37:13.679Z,19.20
2017-09-26T18:39:40.310Z,19.60
2017-09-26T18:42:06.966Z,20.77
2017-09-26T18:44:33.580Z,20.23
2017-09-26T18:47:00.219Z,21.83
2017-09-26T18:49:26.824Z,21.37
2017-09-26T18:51:53.437Z,21.60
2017-09-26T18:54:20.157Z,24.17
2017-09-26T18:56:46.778Z,19.65
2017-09-26T18:59:13.388Z,21.77
2017-09-26T19:01:40.026Z,24.17
2017-09-26T19:04:06.637Z,19.33
2017-09-26T19:06:33.251Z,18.80
2017-09-26T19:08:59.877Z,19.83
2017-09-26T19:11:26.494Z,20.23
2017-09-26T19:13:53.113Z,24.45
2017-09-26T19:16:19.738Z,19.25
2017-09-26T19:18:46.352Z,22.33
2017-09-26T19:21:12.992Z,27.87
2017-09-26T19:23:39.706Z,21.73
2017-09-26T19:26:06.370Z,24.20
2017-09-26T19:28:32.982Z,23.40
2017-09-26T19:30:59.654Z,23.80
2017-09-26T19:33:26.261Z,23.15
2017-09-26T19:35:52.870Z,24.50
2017-09-26T19:38:19.494Z,26.40
2017-09-26T19:40:46.112Z,23.77
2017-09-26T19:43:12.726Z,24.90
2017-09-26T19:45:39.363Z,24.35
2017-09-26T19:48:06.018Z,23.08
2017-09-26T19:50:32.629Z,31.58
2017-09-26T19:52:59.279Z,25.60
2017-09-26T19:55:25.934Z,25.77
2017-09-26T19:57:52.550Z,30.35
2017-09-26T20:00:19.174Z,25.02
2017-09-26T20:02:45.792Z,23.38
2017-09-26T20:05:12.488Z,26.37
2017-09-26T20:07:39.133Z,24.30
2017-09-26T20:10:05.777Z,25.98
2017-09-26T20:12:32.405Z,28.90
2017-09-26T20:14:59.018Z,25.70
2017-09-26T20:17:25.685Z,27.10
2017-09-26T20:19:52.429Z,31.05
2017-09-26T20:22:19.067Z,25.70
2017-09-26T20:24:45.677Z,27.90
2017-09-26T20:27:12.302Z,29.92
2017-09-26T20:29:38.982Z,29.37
2017-09-26T20:32:06.541Z,27.52
2017-09-26T20:34:33.169Z,24.05
2017-09-26T20:36:59.834Z,26.30
2017-09-26T20:39:26.462Z,24.58
2017-09-26T20:41:53.091Z,23.60
2017-09-26T20:44:19.697Z,26.90
2017-09-26T20:46:46.313Z,23.90
2017-09-26T20:49:12.948Z,28.08
2017-09-26T20:51:39.562Z,25.37
2017-09-26T20:54:06.174Z,24.95
2017-09-26T20:56:32.805Z,24.63
2017-09-26T20:58:59.413Z,27.17
2017-09-26T21:01:26.026Z,24.98
2017-09-26T21:03:52.651Z,26.48
2017-09-26T21:06:19.267Z,26.95
2017-09-26T21:08:45.942Z,26.30
2017-09-26T21:11:12.569Z,26.42
2017-09-26T21:13:39.178Z,24.80
2017-09-26T21:16:05.842Z,29.52
2017-09-26T21:18:32.470Z,27.27
2017-09-26T21:20:59.121Z,24.75
2017-09-26T21:23:25.738Z,26.17
2017-09-26T21:25:52.363Z,28.62
2017-09-26T21:28:18.975Z,28.35
2017-09-26T21:30:45.678Z,25.55
2017-09-26T21:33:12.286Z,26.58
2017-09-26T21:35:38.898Z,26.05
2017-09-26T21:38:05.526Z,26.87
2017-09-26T21:40:32.141Z,24.92
2017-09-26T21:42:58.754Z,27.33
2017-09-26T21:45:25.386Z,25.95
2017-09-26T21:47:52.045Z,26.27
2017-09-26T21:50:18.662Z,24.50
2017-09-26T21:52:45.293Z,27.90
2017-09-26T21:55:11.966Z,25.98
2017-09-26T21:57:39.263Z,29.08
2017-09-26T22:00:05.959Z,25.20
2017-09-26T22:02:32.748Z,31.65
2017-09-26T22:05:00.007Z,27.52
2017-09-26T22:07:27.048Z,25.20
2017-09-26T22:09:53.741Z,25.75
2017-09-26T22:12:20.482Z,27.52
2017-09-26T22:14:47.133Z,29.77
2017-09-26T22:17:13.749Z,34.58
2017-09-26T22:19:40.379Z,27.75
2017-09-26T22:22:07.042Z,26.77
2017-09-26T22:24:33.686Z,29.35
2017-09-26T22:27:00.318Z,26.50
2017-09-26T22:29:26.925Z,29.40
2017-09-26T22:31:53.534Z,26.50
2017-09-26T22:34:20.163Z,25.20
2017-09-26T22:36:46.770Z,27.60
2017-09-26T22:39:13.517Z,25.88
2017-09-26T22:41:40.134Z,27.08
2017-09-26T22:44:06.753Z,25.60
2017-09-26T22:46:33.383Z,27.90
2017-09-26T22:48:59.989Z,28.35
2017-09-26T22:51:26.598Z,28.85
2017-09-26T22:53:53.235Z,28.15
2017-09-26T22:56:19.849Z,28.20
2017-09-26T22:58:46.458Z,26.05
2017-09-26T23:01:13.086Z,26.92
2017-09-26T23:03:39.805Z,25.02
2017-09-26T23:06:06.422Z,24.08
2017-09-26T23:08:33.050Z,32.97
2017-09-26T23:10:59.664Z,30.50
2017-09-26T23:13:26.362Z,27.90
2017-09-26T23:15:52.990Z,27.08
2017-09-26T23:18:19.645Z,27.87
2017-09-26T23:20:46.253Z,25.70
2017-09-26T23:23:12.877Z,26.70
2017-09-26T23:25:39.495Z,25.27
2017-09-26T23:28:06.129Z,27.40
2017-09-26T23:30:32.735Z,29.80
2017-09-26T23:32:59.370Z,28.10
2017-09-26T23:35:26.110Z,25.25
2017-09-26T23:37:52.718Z,26.27
2017-09-26T23:40:19.330Z,27.33
2017-09-26T23:42:45.961Z,25.92
2017-09-26T23:45:12.574Z,24.45
2017-09-26T23:47:39.203Z,26.00
2017-09-26T23:50:05.830Z,25.37
2017-09-26T23:52:32.442Z,24.40
2017-09-26T23:54:59.122Z,25.80
2017-09-26T23:57:25.754Z,22.92
2017-09-26T23:59:52.366Z,24.37
